sensor_id;sensor_type;location;lat;lon;timestamp;P1;durP1;ratioP1;P2;durP2;ratioP2
64110;SDS011;50401;48.188;11.566;2023-09-07T00:00:03;20.00;;;10.98;;
64110;SDS011;50401;48.188;11.566;2023-09-07T00:02:30;23.75;;;12.32;;
64110;SDS011;50401;48.188;11.566;2023-09-07T00:04:55;16.38;;;11.13;;
64110;SDS011;50401;48.188;11.566;2023-09-07T00:07:21;21.40;;;11.50;;
64110;SDS011;50401;48.188;11.566;2023-09-07T00:09:46;18.25;;;11.52;;
64110;SDS011;50401;48.188;11.566;2023-09-07T00:12:12;19.92;;;11.10;;
64110;SDS011;50401;48.188;11.566;2023-09-07T00:14:37;16.05;;;11.00;;
64110;SDS011;50401;48.188;11.566;2023-09-07T00:17:02;21.40;;;11.73;;
64110;SDS011;50401;48.188;11.566;2023-09-07T00:19:29;21.05;;;11.18;;
64110;SDS011;50401;48.188;11.566;2023-09-07T00:21:57;18.75;;;11.82;;
64110;SDS011;50401;48.188;11.566;2023-09-07T00:24:23;24.17;;;12.00;;
64110;SDS011;50401;48.188;11.566;2023-09-07T00:26:48;20.23;;;11.65;;
64110;SDS011;50401;48.188;11.566;2023-09-07T00:29:13;23.83;;;12.00;;
64110;SDS011;50401;48.188;11.566;2023-09-07T00:31:39;25.48;;;11.43;;
64110;SDS011;50401;48.188;11.566;2023-09-07T00:34:06;18.73;;;10.50;;
64110;SDS011;50401;48.188;11.566;2023-09-07T00:36:31;20.35;;;12.35;;
64110;SDS011;50401;48.188;11.566;2023-09-07T00:38:56;26.42;;;12.07;;
64110;SDS011;50401;48.188;11.566;2023-09-07T00:41:22;17.42;;;11.45;;
64110;SDS011;50401;48.188;11.566;2023-09-07T00:43:47;21.67;;;12.25;;
64110;SDS011;50401;48.188;11.566;2023-09-07T00:46:13;22.98;;;11.43;;
64110;SDS011;50401;48.188;11.566;2023-09-07T00:48:39;17.33;;;11.32;;
64110;SDS011;50401;48.188;11.566;2023-09-07T00:51:05;19.30;;;10.88;;
64110;SDS011;50401;48.188;11.566;2023-09-07T00:53:30;23.95;;;12.30;;
64110;SDS011;50401;48.188;11.566;2023-09-07T00:55:56;21.30;;;11.68;;
64110;SDS011;50401;48.188;11.566;2023-09-07T00:58:22;19.23;;;11.25;;
64110;SDS011;50401;48.188;11.566;2023-09-07T01:00:48;20.15;;;10.45;;
64110;SDS011;50401;48.188;11.566;2023-09-07T01:03:14;16.45;;;10.10;;
64110;SDS011;50401;48.188;11.566;2023-09-07T01:08:32;17.63;;;11.20;;
64110;SDS011;50401;48.188;11.566;2023-09-07T01:11:19;18.70;;;11.23;;
64110;SDS011;50401;48.188;11.566;2023-09-07T01:13:45;19.48;;;11.07;;
64110;SDS011;50401;48.188;11.566;2023-09-07T01:16:11;22.15;;;11.70;;
64110;SDS011;50401;48.188;11.566;2023-09-07T01:18:38;32.72;;;12.30;;
64110;SDS011;50401;48.188;11.566;2023-09-07T01:21:07;21.73;;;11.52;;
64110;SDS011;50401;48.188;11.566;2023-09-07T01:23:36;19.92;;;12.02;;
64110;SDS011;50401;48.188;11.566;2023-09-07T01:26:05;19.05;;;12.27;;
64110;SDS011;50401;48.188;11.566;2023-09-07T01:28:31;22.42;;;12.38;;
64110;SDS011;50401;48.188;11.566;2023-09-07T01:30:56;20.70;;;11.75;;
64110;SDS011;50401;48.188;11.566;2023-09-07T01:33:22;19.58;;;11.82;;
64110;SDS011;50401;48.188;11.566;2023-09-07T01:35:48;19.33;;;11.85;;
64110;SDS011;50401;48.188;11.566;2023-09-07T01:38:13;21.00;;;11.50;;
64110;SDS011;50401;48.188;11.566;2023-09-07T01:40:38;18.42;;;11.93;;
64110;SDS011;50401;48.188;11.566;2023-09-07T01:43:04;26.25;;;12.10;;
64110;SDS011;50401;48.188;11.566;2023-09-07T01:45:29;19.23;;;11.02;;
64110;SDS011;50401;48.188;11.566;2023-09-07T01:47:54;18.33;;;10.88;;
64110;SDS011;50401;48.188;11.566;2023-09-07T01:50:20;21.60;;;10.77;;
64110;SDS011;50401;48.188;11.566;2023-09-07T01:52:46;26.02;;;11.27;;
64110;SDS011;50401;48.188;11.566;2023-09-07T01:55:13;22.23;;;11.02;;
64110;SDS011;50401;48.188;11.566;2023-09-07T01:57:39;16.27;;;10.52;;
64110;SDS011;50401;48.188;11.566;2023-09-07T02:00:04;21.30;;;11.40;;
64110;SDS011;50401;48.188;11.566;2023-09-07T02:02:30;14.85;;;10.60;;
64110;SDS011;50401;48.188;11.566;2023-09-07T02:04:56;21.33;;;11.18;;
64110;SDS011;50401;48.188;11.566;2023-09-07T02:07:21;31.33;;;10.73;;
64110;SDS011;50401;48.188;11.566;2023-09-07T02:09:46;18.38;;;10.98;;
64110;SDS011;50401;48.188;11.566;2023-09-07T02:12:12;19.88;;;11.77;;
64110;SDS011;50401;48.188;11.566;2023-09-07T02:14:37;25.65;;;11.40;;
64110;SDS011;50401;48.188;11.566;2023-09-07T02:17:03;19.67;;;11.68;;
64110;SDS011;50401;48.188;11.566;2023-09-07T02:19:28;19.25;;;11.35;;
64110;SDS011;50401;48.188;11.566;2023-09-07T02:21:54;23.60;;;12.23;;
64110;SDS011;50401;48.188;11.566;2023-09-07T02:24:19;23.02;;;12.35;;
64110;SDS011;50401;48.188;11.566;2023-09-07T02:26:44;25.90;;;13.45;;
64110;SDS011;50401;48.188;11.566;2023-09-07T02:29:13;23.02;;;12.85;;
64110;SDS011;50401;48.188;11.566;2023-09-07T02:31:42;24.05;;;12.18;;
64110;SDS011;50401;48.188;11.566;2023-09-07T02:34:07;25.73;;;12.20;;
64110;SDS011;50401;48.188;11.566;2023-09-07T02:36:33;25.80;;;13.82;;
64110;SDS011;50401;48.188;11.566;2023-09-07T02:39:00;29.88;;;13.00;;
64110;SDS011;50401;48.188;11.566;2023-09-07T02:41:26;23.60;;;12.63;;
64110;SDS011;50401;48.188;11.566;2023-09-07T02:43:51;28.52;;;13.25;;
64110;SDS011;50401;48.188;11.566;2023-09-07T02:46:17;20.33;;;12.88;;
64110;SDS011;50401;48.188;11.566;2023-09-07T02:48:42;21.88;;;13.30;;
64110;SDS011;50401;48.188;11.566;2023-09-07T02:51:07;35.28;;;13.82;;
64110;SDS011;50401;48.188;11.566;2023-09-07T02:53:33;29.27;;;14.00;;
64110;SDS011;50401;48.188;11.566;2023-09-07T02:55:58;22.48;;;13.02;;
64110;SDS011;50401;48.188;11.566;2023-09-07T02:58:26;24.27;;;12.50;;
64110;SDS011;50401;48.188;11.566;2023-09-07T03:00:51;29.67;;;13.25;;
64110;SDS011;50401;48.188;11.566;2023-09-07T03:03:16;24.83;;;12.55;;
64110;SDS011;50401;48.188;11.566;2023-09-07T03:05:42;22.65;;;13.05;;
64110;SDS011;50401;48.188;11.566;2023-09-07T03:08:08;30.33;;;12.65;;
64110;SDS011;50401;48.188;11.566;2023-09-07T03:10:36;33.05;;;14.73;;
64110;SDS011;50401;48.188;11.566;2023-09-07T03:13:04;34.85;;;13.32;;
64110;SDS011;50401;48.188;11.566;2023-09-07T03:15:30;31.50;;;14.65;;
64110;SDS011;50401;48.188;11.566;2023-09-07T03:17:55;26.23;;;13.40;;
64110;SDS011;50401;48.188;11.566;2023-09-07T03:20:21;24.25;;;13.75;;
64110;SDS011;50401;48.188;11.566;2023-09-07T03:22:46;25.80;;;13.57;;
64110;SDS011;50401;48.188;11.566;2023-09-07T03:25:12;24.55;;;12.70;;
64110;SDS011;50401;48.188;11.566;2023-09-07T03:27:38;24.35;;;13.40;;
64110;SDS011;50401;48.188;11.566;2023-09-07T03:30:04;23.92;;;12.77;;
64110;SDS011;50401;48.188;11.566;2023-09-07T03:32:30;29.17;;;13.13;;
64110;SDS011;50401;48.188;11.566;2023-09-07T03:35:02;29.65;;;14.05;;
64110;SDS011;50401;48.188;11.566;2023-09-07T03:37:29;25.58;;;12.40;;
64110;SDS011;50401;48.188;11.566;2023-09-07T03:39:55;31.45;;;13.77;;
64110;SDS011;50401;48.188;11.566;2023-09-07T03:42:21;43.58;;;13.88;;
64110;SDS011;50401;48.188;11.566;2023-09-07T03:44:47;28.55;;;13.77;;
64110;SDS011;50401;48.188;11.566;2023-09-07T03:47:13;28.95;;;13.55;;
64110;SDS011;50401;48.188;11.566;2023-09-07T03:49:39;33.55;;;15.88;;
64110;SDS011;50401;48.188;11.566;2023-09-07T03:52:04;31.02;;;17.75;;
64110;SDS011;50401;48.188;11.566;2023-09-07T03:54:30;32.92;;;16.38;;
64110;SDS011;50401;48.188;11.566;2023-09-07T03:56:56;38.65;;;16.30;;
64110;SDS011;50401;48.188;11.566;2023-09-07T03:59:22;20.98;;;13.25;;
64110;SDS011;50401;48.188;11.566;2023-09-07T04:01:47;30.80;;;14.77;;
64110;SDS011;50401;48.188;11.566;2023-09-07T04:04:12;24.52;;;14.32;;
64110;SDS011;50401;48.188;11.566;2023-09-07T04:06:38;36.03;;;14.13;;
64110;SDS011;50401;48.188;11.566;2023-09-07T04:09:03;26.20;;;14.23;;
64110;SDS011;50401;48.188;11.566;2023-09-07T04:11:30;26.25;;;14.85;;
64110;SDS011;50401;48.188;11.566;2023-09-07T04:13:55;30.67;;;15.18;;
64110;SDS011;50401;48.188;11.566;2023-09-07T04:16:20;28.73;;;15.25;;
64110;SDS011;50401;48.188;11.566;2023-09-07T04:18:46;29.52;;;15.10;;
64110;SDS011;50401;48.188;11.566;2023-09-07T04:21:11;28.70;;;16.42;;
64110;SDS011;50401;48.188;11.566;2023-09-07T04:23:37;29.67;;;15.88;;
64110;SDS011;50401;48.188;11.566;2023-09-07T04:26:09;35.95;;;15.48;;
64110;SDS011;50401;48.188;11.566;2023-09-07T04:28:36;43.97;;;16.00;;
64110;SDS011;50401;48.188;11.566;2023-09-07T04:31:02;35.78;;;15.07;;
64110;SDS011;50401;48.188;11.566;2023-09-07T04:33:32;27.52;;;16.10;;
64110;SDS011;50401;48.188;11.566;2023-09-07T04:36:11;33.55;;;15.35;;
64110;SDS011;50401;48.188;11.566;2023-09-07T04:38:37;34.92;;;16.45;;
64110;SDS011;50401;48.188;11.566;2023-09-07T04:41:07;27.75;;;15.68;;
64110;SDS011;50401;48.188;11.566;2023-09-07T04:43:34;37.08;;;16.30;;
64110;SDS011;50401;48.188;11.566;2023-09-07T04:45:59;54.53;;;16.30;;
64110;SDS011;50401;48.188;11.566;2023-09-07T04:48:24;41.72;;;16.33;;
64110;SDS011;50401;48.188;11.566;2023-09-07T04:50:57;40.22;;;15.73;;
64110;SDS011;50401;48.188;11.566;2023-09-07T04:53:30;30.00;;;16.70;;
64110;SDS011;50401;48.188;11.566;2023-09-07T04:55:56;31.90;;;15.93;;
64110;SDS011;50401;48.188;11.566;2023-09-07T04:58:22;38.47;;;17.27;;
64110;SDS011;50401;48.188;11.566;2023-09-07T05:00:47;29.92;;;16.92;;
64110;SDS011;50401;48.188;11.566;2023-09-07T05:03:13;27.73;;;16.77;;
64110;SDS011;50401;48.188;11.566;2023-09-07T05:05:38;34.47;;;15.70;;
64110;SDS011;50401;48.188;11.566;2023-09-07T05:08:04;35.78;;;16.77;;
64110;SDS011;50401;48.188;11.566;2023-09-07T05:10:32;29.45;;;16.23;;
64110;SDS011;50401;48.188;11.566;2023-09-07T05:12:58;26.70;;;16.20;;
64110;SDS011;50401;48.188;11.566;2023-09-07T05:15:24;30.75;;;15.18;;
64110;SDS011;50401;48.188;11.566;2023-09-07T05:17:49;32.47;;;15.57;;
64110;SDS011;50401;48.188;11.566;2023-09-07T05:20:15;25.83;;;14.45;;
64110;SDS011;50401;48.188;11.566;2023-09-07T05:22:40;26.27;;;14.38;;
64110;SDS011;50401;48.188;11.566;2023-09-07T05:25:06;29.60;;;15.63;;
64110;SDS011;50401;48.188;11.566;2023-09-07T05:27:33;30.20;;;14.60;;
64110;SDS011;50401;48.188;11.566;2023-09-07T05:30:00;32.60;;;14.02;;
64110;SDS011;50401;48.188;11.566;2023-09-07T05:32:25;32.38;;;14.88;;
64110;SDS011;50401;48.188;11.566;2023-09-07T05:34:51;31.85;;;15.85;;
64110;SDS011;50401;48.188;11.566;2023-09-07T05:37:16;36.13;;;15.30;;
64110;SDS011;50401;48.188;11.566;2023-09-07T05:39:41;28.15;;;15.90;;
64110;SDS011;50401;48.188;11.566;2023-09-07T05:42:07;38.60;;;16.52;;
64110;SDS011;50401;48.188;11.566;2023-09-07T05:44:32;27.38;;;15.38;;
64110;SDS011;50401;48.188;11.566;2023-09-07T05:46:57;28.02;;;15.07;;
64110;SDS011;50401;48.188;11.566;2023-09-07T05:49:23;31.17;;;16.65;;
64110;SDS011;50401;48.188;11.566;2023-09-07T05:51:49;28.77;;;16.08;;
64110;SDS011;50401;48.188;11.566;2023-09-07T05:54:14;38.35;;;16.77;;
64110;SDS011;50401;48.188;11.566;2023-09-07T05:56:40;28.10;;;16.08;;
64110;SDS011;50401;48.188;11.566;2023-09-07T05:59:05;29.42;;;16.45;;
64110;SDS011;50401;48.188;11.566;2023-09-07T06:01:31;24.40;;;15.18;;
64110;SDS011;50401;48.188;11.566;2023-09-07T06:03:57;32.40;;;17.17;;
64110;SDS011;50401;48.188;11.566;2023-09-07T06:06:23;33.63;;;17.52;;
64110;SDS011;50401;48.188;11.566;2023-09-07T06:08:48;32.63;;;16.98;;
64110;SDS011;50401;48.188;11.566;2023-09-07T06:11:13;36.83;;;17.25;;
64110;SDS011;50401;48.188;11.566;2023-09-07T06:13:39;37.15;;;16.63;;
64110;SDS011;50401;48.188;11.566;2023-09-07T06:16:04;33.05;;;17.60;;
64110;SDS011;50401;48.188;11.566;2023-09-07T06:18:30;31.63;;;16.98;;
64110;SDS011;50401;48.188;11.566;2023-09-07T06:20:55;45.47;;;18.77;;
64110;SDS011;50401;48.188;11.566;2023-09-07T06:23:20;47.47;;;17.65;;
64110;SDS011;50401;48.188;11.566;2023-09-07T06:25:46;49.58;;;17.73;;
64110;SDS011;50401;48.188;11.566;2023-09-07T06:28:11;41.45;;;17.27;;
64110;SDS011;50401;48.188;11.566;2023-09-07T06:30:38;47.08;;;17.75;;
64110;SDS011;50401;48.188;11.566;2023-09-07T06:33:04;42.25;;;16.48;;
64110;SDS011;50401;48.188;11.566;2023-09-07T06:35:29;39.28;;;17.13;;
64110;SDS011;50401;48.188;11.566;2023-09-07T06:37:55;33.83;;;16.90;;
64110;SDS011;50401;48.188;11.566;2023-09-07T06:40:21;35.35;;;17.05;;
64110;SDS011;50401;48.188;11.566;2023-09-07T06:42:46;37.28;;;18.27;;
64110;SDS011;50401;48.188;11.566;2023-09-07T06:45:12;40.17;;;18.75;;
64110;SDS011;50401;48.188;11.566;2023-09-07T06:47:37;37.08;;;17.52;;
64110;SDS011;50401;48.188;11.566;2023-09-07T06:50:03;40.72;;;17.25;;
64110;SDS011;50401;48.188;11.566;2023-09-07T06:52:29;37.35;;;16.75;;
64110;SDS011;50401;48.188;11.566;2023-09-07T06:54:54;38.38;;;19.35;;
64110;SDS011;50401;48.188;11.566;2023-09-07T06:57:20;38.20;;;17.80;;
64110;SDS011;50401;48.188;11.566;2023-09-07T06:59:45;32.65;;;16.80;;
64110;SDS011;50401;48.188;11.566;2023-09-07T07:02:11;30.58;;;15.02;;
64110;SDS011;50401;48.188;11.566;2023-09-07T07:04:36;31.23;;;16.52;;
64110;SDS011;50401;48.188;11.566;2023-09-07T07:07:04;28.70;;;16.63;;
64110;SDS011;50401;48.188;11.566;2023-09-07T07:09:33;27.38;;;15.15;;
64110;SDS011;50401;48.188;11.566;2023-09-07T07:11:59;30.70;;;16.50;;
64110;SDS011;50401;48.188;11.566;2023-09-07T07:14:28;30.10;;;16.40;;
64110;SDS011;50401;48.188;11.566;2023-09-07T07:16:53;29.45;;;14.75;;
64110;SDS011;50401;48.188;11.566;2023-09-07T07:19:19;28.15;;;14.35;;
64110;SDS011;50401;48.188;11.566;2023-09-07T07:21:44;33.05;;;14.57;;
64110;SDS011;50401;48.188;11.566;2023-09-07T07:24:09;27.55;;;14.68;;
64110;SDS011;50401;48.188;11.566;2023-09-07T07:26:35;24.75;;;14.05;;
64110;SDS011;50401;48.188;11.566;2023-09-07T07:29:01;26.08;;;13.52;;
64110;SDS011;50401;48.188;11.566;2023-09-07T07:31:28;23.67;;;13.30;;
64110;SDS011;50401;48.188;11.566;2023-09-07T07:33:54;26.58;;;13.45;;
64110;SDS011;50401;48.188;11.566;2023-09-07T07:36:20;22.60;;;12.18;;
64110;SDS011;50401;48.188;11.566;2023-09-07T07:38:46;24.98;;;12.65;;
64110;SDS011;50401;48.188;11.566;2023-09-07T07:41:11;23.23;;;13.18;;
64110;SDS011;50401;48.188;11.566;2023-09-07T07:43:37;24.88;;;11.32;;
64110;SDS011;50401;48.188;11.566;2023-09-07T07:46:02;23.10;;;11.98;;
64110;SDS011;50401;48.188;11.566;2023-09-07T07:48:27;20.05;;;11.20;;
64110;SDS011;50401;48.188;11.566;2023-09-07T07:50:54;28.05;;;12.15;;
64110;SDS011;50401;48.188;11.566;2023-09-07T07:53:20;20.67;;;12.20;;
64110;SDS011;50401;48.188;11.566;2023-09-07T07:55:45;20.35;;;11.73;;
64110;SDS011;50401;48.188;11.566;2023-09-07T07:58:11;19.73;;;12.10;;
64110;SDS011;50401;48.188;11.566;2023-09-07T08:00:37;25.45;;;12.35;;
64110;SDS011;50401;48.188;11.566;2023-09-07T08:03:03;21.63;;;11.38;;
64110;SDS011;50401;48.188;11.566;2023-09-07T08:05:31;24.87;;;13.17;;
64110;SDS011;50401;48.188;11.566;2023-09-07T08:07:57;29.13;;;13.70;;
64110;SDS011;50401;48.188;11.566;2023-09-07T08:10:22;23.05;;;11.77;;
64110;SDS011;50401;48.188;11.566;2023-09-07T08:12:47;29.63;;;14.35;;
64110;SDS011;50401;48.188;11.566;2023-09-07T08:15:13;27.60;;;13.30;;
64110;SDS011;50401;48.188;11.566;2023-09-07T08:17:39;23.50;;;12.27;;
64110;SDS011;50401;48.188;11.566;2023-09-07T08:20:05;22.67;;;12.15;;
64110;SDS011;50401;48.188;11.566;2023-09-07T08:22:32;18.45;;;12.25;;
64110;SDS011;50401;48.188;11.566;2023-09-07T08:25:01;20.33;;;12.35;;
64110;SDS011;50401;48.188;11.566;2023-09-07T08:27:27;20.17;;;11.35;;
64110;SDS011;50401;48.188;11.566;2023-09-07T08:29:52;23.83;;;11.13;;
64110;SDS011;50401;48.188;11.566;2023-09-07T08:32:18;18.83;;;11.43;;
64110;SDS011;50401;48.188;11.566;2023-09-07T08:34:44;19.80;;;12.00;;
64110;SDS011;50401;48.188;11.566;2023-09-07T08:37:09;26.90;;;11.52;;
64110;SDS011;50401;48.188;11.566;2023-09-07T08:39:35;19.63;;;11.18;;
64110;SDS011;50401;48.188;11.566;2023-09-07T08:42:01;16.40;;;10.35;;
64110;SDS011;50401;48.188;11.566;2023-09-07T08:44:27;23.65;;;11.80;;
64110;SDS011;50401;48.188;11.566;2023-09-07T08:46:53;18.63;;;10.63;;
64110;SDS011;50401;48.188;11.566;2023-09-07T08:49:20;20.90;;;11.40;;
64110;SDS011;50401;48.188;11.566;2023-09-07T08:51:48;13.65;;;9.38;;
64110;SDS011;50401;48.188;11.566;2023-09-07T08:54:13;16.98;;;10.60;;
64110;SDS011;50401;48.188;11.566;2023-09-07T08:56:39;27.90;;;11.75;;
64110;SDS011;50401;48.188;11.566;2023-09-07T08:59:04;27.10;;;12.10;;
64110;SDS011;50401;48.188;11.566;2023-09-07T09:01:30;20.60;;;11.23;;
64110;SDS011;50401;48.188;11.566;2023-09-07T09:03:57;21.80;;;11.40;;
64110;SDS011;50401;48.188;11.566;2023-09-07T09:06:22;22.38;;;11.85;;
64110;SDS011;50401;48.188;11.566;2023-09-07T09:08:49;24.92;;;12.75;;
64110;SDS011;50401;48.188;11.566;2023-09-07T09:11:16;20.42;;;12.70;;
64110;SDS011;50401;48.188;11.566;2023-09-07T09:13:42;20.23;;;11.20;;
64110;SDS011;50401;48.188;11.566;2023-09-07T09:16:08;25.40;;;12.27;;
64110;SDS011;50401;48.188;11.566;2023-09-07T09:18:34;23.23;;;11.60;;
64110;SDS011;50401;48.188;11.566;2023-09-07T09:21:00;30.85;;;11.80;;
64110;SDS011;50401;48.188;11.566;2023-09-07T09:23:36;23.75;;;12.88;;
64110;SDS011;50401;48.188;11.566;2023-09-07T09:26:02;31.00;;;13.27;;
64110;SDS011;50401;48.188;11.566;2023-09-07T09:28:33;22.60;;;13.23;;
64110;SDS011;50401;48.188;11.566;2023-09-07T09:30:59;20.58;;;14.00;;
64110;SDS011;50401;48.188;11.566;2023-09-07T09:33:25;21.50;;;13.02;;
64110;SDS011;50401;48.188;11.566;2023-09-07T09:35:54;25.15;;;15.13;;
64110;SDS011;50401;48.188;11.566;2023-09-07T09:38:20;21.33;;;13.07;;
64110;SDS011;50401;48.188;11.566;2023-09-07T09:40:45;20.60;;;12.02;;
64110;SDS011;50401;48.188;11.566;2023-09-07T09:43:11;23.20;;;11.32;;
64110;SDS011;50401;48.188;11.566;2023-09-07T09:45:37;19.65;;;13.70;;
64110;SDS011;50401;48.188;11.566;2023-09-07T09:48:03;20.15;;;10.70;;
64110;SDS011;50401;48.188;11.566;2023-09-07T09:50:30;16.42;;;9.88;;
64110;SDS011;50401;48.188;11.566;2023-09-07T09:52:56;18.27;;;9.80;;
64110;SDS011;50401;48.188;11.566;2023-09-07T09:55:23;24.60;;;11.90;;
64110;SDS011;50401;48.188;11.566;2023-09-07T09:57:48;19.95;;;11.00;;
64110;SDS011;50401;48.188;11.566;2023-09-07T10:00:15;19.70;;;10.63;;
64110;SDS011;50401;48.188;11.566;2023-09-07T10:02:54;24.90;;;11.77;;
64110;SDS011;50401;48.188;11.566;2023-09-07T10:05:24;19.40;;;11.60;;
64110;SDS011;50401;48.188;11.566;2023-09-07T10:07:50;18.55;;;10.45;;
64110;SDS011;50401;48.188;11.566;2023-09-07T10:10:17;19.65;;;12.75;;
64110;SDS011;50401;48.188;11.566;2023-09-07T10:12:45;22.23;;;12.35;;
64110;SDS011;50401;48.188;11.566;2023-09-07T10:15:22;16.98;;;10.82;;
64110;SDS011;50401;48.188;11.566;2023-09-07T10:17:49;15.05;;;10.30;;
64110;SDS011;50401;48.188;11.566;2023-09-07T10:20:15;21.25;;;11.13;;
64110;SDS011;50401;48.188;11.566;2023-09-07T10:22:42;17.38;;;10.05;;
64110;SDS011;50401;48.188;11.566;2023-09-07T10:25:18;18.98;;;11.27;;
64110;SDS011;50401;48.188;11.566;2023-09-07T10:27:44;19.00;;;10.65;;
64110;SDS011;50401;48.188;11.566;2023-09-07T10:30:10;14.05;;;10.98;;
64110;SDS011;50401;48.188;11.566;2023-09-07T10:32:40;15.82;;;10.60;;
64110;SDS011;50401;48.188;11.566;2023-09-07T10:37:44;21.85;;;11.82;;
64110;SDS011;50401;48.188;11.566;2023-09-07T10:40:11;21.08;;;10.07;;
64110;SDS011;50401;48.188;11.566;2023-09-07T10:42:37;25.80;;;11.15;;
64110;SDS011;50401;48.188;11.566;2023-09-07T10:45:12;18.85;;;10.35;;
64110;SDS011;50401;48.188;11.566;2023-09-07T10:47:44;19.40;;;11.60;;
64110;SDS011;50401;48.188;11.566;2023-09-07T10:50:11;17.88;;;10.32;;
64110;SDS011;50401;48.188;11.566;2023-09-07T10:52:38;17.27;;;10.15;;
64110;SDS011;50401;48.188;11.566;2023-09-07T10:55:03;25.25;;;10.50;;
64110;SDS011;50401;48.188;11.566;2023-09-07T10:57:29;19.33;;;10.13;;
64110;SDS011;50401;48.188;11.566;2023-09-07T10:59:54;20.48;;;10.30;;
64110;SDS011;50401;48.188;11.566;2023-09-07T11:02:20;16.92;;;10.10;;
64110;SDS011;50401;48.188;11.566;2023-09-07T11:04:45;17.33;;;10.48;;
64110;SDS011;50401;48.188;11.566;2023-09-07T11:07:11;22.35;;;11.07;;
64110;SDS011;50401;48.188;11.566;2023-09-07T11:09:41;16.85;;;11.02;;
64110;SDS011;50401;48.188;11.566;2023-09-07T11:12:07;24.17;;;10.98;;
64110;SDS011;50401;48.188;11.566;2023-09-07T11:14:33;12.40;;;9.73;;
64110;SDS011;50401;48.188;11.566;2023-09-07T11:17:00;22.48;;;10.43;;
64110;SDS011;50401;48.188;11.566;2023-09-07T11:19:31;21.65;;;10.38;;
64110;SDS011;50401;48.188;11.566;2023-09-07T11:21:57;19.30;;;9.57;;
64110;SDS011;50401;48.188;11.566;2023-09-07T11:24:22;17.00;;;9.50;;
64110;SDS011;50401;48.188;11.566;2023-09-07T11:26:48;21.45;;;9.65;;
64110;SDS011;50401;48.188;11.566;2023-09-07T11:29:13;28.60;;;9.35;;
64110;SDS011;50401;48.188;11.566;2023-09-07T11:31:40;20.60;;;9.98;;
64110;SDS011;50401;48.188;11.566;2023-09-07T11:34:08;18.00;;;9.60;;
64110;SDS011;50401;48.188;11.566;2023-09-07T11:36:35;15.18;;;10.27;;
64110;SDS011;50401;48.188;11.566;2023-09-07T11:39:00;18.50;;;9.88;;
64110;SDS011;50401;48.188;11.566;2023-09-07T11:41:26;14.27;;;9.73;;
64110;SDS011;50401;48.188;11.566;2023-09-07T11:43:52;15.45;;;10.57;;
64110;SDS011;50401;48.188;11.566;2023-09-07T11:46:17;17.80;;;9.70;;
64110;SDS011;50401;48.188;11.566;2023-09-07T11:48:43;19.40;;;10.30;;
64110;SDS011;50401;48.188;11.566;2023-09-07T11:51:08;15.75;;;9.00;;
64110;SDS011;50401;48.188;11.566;2023-09-07T11:53:34;16.65;;;9.18;;
64110;SDS011;50401;48.188;11.566;2023-09-07T11:55:59;26.42;;;9.85;;
64110;SDS011;50401;48.188;11.566;2023-09-07T11:58:24;14.85;;;9.23;;
64110;SDS011;50401;48.188;11.566;2023-09-07T12:00:51;13.80;;;9.25;;
64110;SDS011;50401;48.188;11.566;2023-09-07T12:03:17;18.77;;;9.85;;
64110;SDS011;50401;48.188;11.566;2023-09-07T12:05:42;14.13;;;9.10;;
64110;SDS011;50401;48.188;11.566;2023-09-07T12:08:09;15.70;;;9.70;;
64110;SDS011;50401;48.188;11.566;2023-09-07T12:10:34;13.48;;;8.55;;
64110;SDS011;50401;48.188;11.566;2023-09-07T12:13:00;15.80;;;9.18;;
64110;SDS011;50401;48.188;11.566;2023-09-07T12:15:25;20.77;;;8.68;;
64110;SDS011;50401;48.188;11.566;2023-09-07T12:17:51;13.93;;;9.15;;
64110;SDS011;50401;48.188;11.566;2023-09-07T12:20:19;12.85;;;8.82;;
64110;SDS011;50401;48.188;11.566;2023-09-07T12:22:46;14.45;;;8.60;;
64110;SDS011;50401;48.188;11.566;2023-09-07T12:25:11;11.93;;;8.48;;
64110;SDS011;50401;48.188;11.566;2023-09-07T12:27:37;14.07;;;8.65;;
64110;SDS011;50401;48.188;11.566;2023-09-07T12:30:02;15.20;;;8.30;;
64110;SDS011;50401;48.188;11.566;2023-09-07T12:32:31;18.30;;;7.97;;
64110;SDS011;50401;48.188;11.566;2023-09-07T12:34:57;16.13;;;8.60;;
64110;SDS011;50401;48.188;11.566;2023-09-07T12:37:22;19.58;;;8.80;;
64110;SDS011;50401;48.188;11.566;2023-09-07T12:39:48;13.23;;;7.63;;
64110;SDS011;50401;48.188;11.566;2023-09-07T12:42:14;11.90;;;7.97;;
64110;SDS011;50401;48.188;11.566;2023-09-07T12:44:40;19.25;;;8.25;;
64110;SDS011;50401;48.188;11.566;2023-09-07T12:47:05;14.20;;;8.40;;
64110;SDS011;50401;48.188;11.566;2023-09-07T12:49:30;14.13;;;7.32;;
64110;SDS011;50401;48.188;11.566;2023-09-07T12:51:56;19.70;;;7.80;;
64110;SDS011;50401;48.188;11.566;2023-09-07T12:54:21;13.18;;;7.55;;
64110;SDS011;50401;48.188;11.566;2023-09-07T12:56:46;15.77;;;7.53;;
64110;SDS011;50401;48.188;11.566;2023-09-07T12:59:12;16.45;;;8.02;;
64110;SDS011;50401;48.188;11.566;2023-09-07T13:01:37;21.60;;;8.15;;
64110;SDS011;50401;48.188;11.566;2023-09-07T13:04:02;17.33;;;7.30;;
64110;SDS011;50401;48.188;11.566;2023-09-07T13:06:28;19.98;;;7.32;;
64110;SDS011;50401;48.188;11.566;2023-09-07T13:08:53;15.65;;;8.50;;
64110;SDS011;50401;48.188;11.566;2023-09-07T13:11:18;12.13;;;7.25;;
64110;SDS011;50401;48.188;11.566;2023-09-07T13:13:44;11.93;;;7.18;;
64110;SDS011;50401;48.188;11.566;2023-09-07T13:16:09;13.90;;;6.38;;
64110;SDS011;50401;48.188;11.566;2023-09-07T13:18:35;12.05;;;6.70;;
64110;SDS011;50401;48.188;11.566;2023-09-07T13:21:00;10.85;;;6.72;;
64110;SDS011;50401;48.188;11.566;2023-09-07T13:23:26;14.00;;;7.18;;
64110;SDS011;50401;48.188;11.566;2023-09-07T13:25:52;14.65;;;7.07;;
64110;SDS011;50401;48.188;11.566;2023-09-07T13:28:17;13.18;;;7.07;;
64110;SDS011;50401;48.188;11.566;2023-09-07T13:30:43;12.48;;;7.00;;
64110;SDS011;50401;48.188;11.566;2023-09-07T13:33:08;13.70;;;6.72;;
64110;SDS011;50401;48.188;11.566;2023-09-07T13:35:33;10.00;;;5.82;;
64110;SDS011;50401;48.188;11.566;2023-09-07T13:37:59;16.73;;;6.75;;
64110;SDS011;50401;48.188;11.566;2023-09-07T13:40:24;14.80;;;6.18;;
64110;SDS011;50401;48.188;11.566;2023-09-07T13:42:54;12.07;;;6.43;;
64110;SDS011;50401;48.188;11.566;2023-09-07T13:45:19;12.55;;;6.28;;
64110;SDS011;50401;48.188;11.566;2023-09-07T13:47:45;13.77;;;6.45;;
64110;SDS011;50401;48.188;11.566;2023-09-07T13:50:11;7.25;;;5.72;;
64110;SDS011;50401;48.188;11.566;2023-09-07T13:52:36;12.48;;;6.78;;
64110;SDS011;50401;48.188;11.566;2023-09-07T13:55:02;11.85;;;6.00;;
64110;SDS011;50401;48.188;11.566;2023-09-07T13:57:27;9.20;;;5.85;;
64110;SDS011;50401;48.188;11.566;2023-09-07T13:59:52;9.77;;;6.55;;
64110;SDS011;50401;48.188;11.566;2023-09-07T14:02:19;16.35;;;6.68;;
64110;SDS011;50401;48.188;11.566;2023-09-07T14:04:44;22.00;;;6.82;;
64110;SDS011;50401;48.188;11.566;2023-09-07T14:07:09;15.10;;;6.13;;
64110;SDS011;50401;48.188;11.566;2023-09-07T14:09:35;10.95;;;6.72;;